Time;durP1;ratioP1;P1;durP2;ratioP2;P2;SDS_P1;SDS_P2;PMS_P1;PMS_P2;Temp;Humidity;BMP_temperature;BMP_pressure;BME280_temperature;BME280_humidity;BME280_pressure;Samples;Min_cycle;Max_cycle;Signal;HPM_P1;HPM_P2
2021/04/07 00:01:47;;;;;;;2.93;2.73;;;0.40;99.90;;;;;;4989493;28;20189;-85
2021/04/07 00:04:13;;;;;;;3.10;2.90;;;0.40;99.90;;;;;;4994142;28;20203;-85
2021/04/07 00:06:40;;;;;;;3.20;3.00;;;0.40;99.90;;;;;;4990258;28;20244;-85
2021/04/07 00:09:06;;;;;;;4.45;3.10;;;0.30;99.90;;;;;;4976910;28;21857;-85
2021/04/07 00:11:32;;;;;;;3.50;3.20;;;0.30;99.90;;;;;;4977457;28;20851;-86
2021/04/07 00:13:59;;;;;;;9.75;3.38;;;0.30;99.90;;;;;;4989179;28;20184;-86
2021/04/07 00:16:25;;;;;;;4.38;3.15;;;0.30;99.90;;;;;;4987611;28;20720;-86
2021/04/07 00:18:50;;;;;;;3.30;2.70;;;0.40;99.90;;;;;;4988738;28;20188;-85
2021/04/07 00:21:16;;;;;;;5.43;3.03;;;0.40;99.90;;;;;;4994199;28;20964;-84
2021/04/07 00:23:42;;;;;;;4.05;3.15;;;0.40;99.90;;;;;;4990785;28;20283;-84
2021/04/07 00:26:07;;;;;;;5.00;3.57;;;0.30;99.90;;;;;;4992329;28;20208;-84
2021/04/07 00:28:33;;;;;;;4.00;3.00;;;0.30;99.90;;;;;;4973771;28;20197;-84
2021/04/07 00:30:59;;;;;;;2.97;2.40;;;0.40;99.90;;;;;;4988509;28;20181;-84
2021/04/07 00:33:25;;;;;;;4.77;3.07;;;0.40;99.90;;;;;;4988978;28;20280;-84
2021/04/07 00:35:50;;;;;;;3.70;2.73;;;0.50;99.90;;;;;;4991253;28;20189;-84
2021/04/07 00:38:16;;;;;;;3.80;2.90;;;0.40;99.90;;;;;;4967462;28;20184;-84
2021/04/07 00:40:43;;;;;;;4.27;3.53;;;0.50;99.90;;;;;;4964426;28;20332;-84
2021/04/07 00:43:09;;;;;;;3.22;2.92;;;0.50;99.90;;;;;;4974545;28;20273;-84
2021/04/07 00:45:35;;;;;;;3.27;2.97;;;0.40;99.90;;;;;;4977152;28;20279;-84
2021/04/07 00:48:02;;;;;;;3.10;2.85;;;0.40;99.90;;;;;;4974196;28;20755;-84
2021/04/07 00:50:29;;;;;;;3.90;3.13;;;0.40;99.90;;;;;;4982627;28;20215;-83
2021/04/07 00:52:55;;;;;;;4.53;2.78;;;0.50;99.90;;;;;;4979785;28;20188;-83
2021/04/07 00:55:25;;;;;;;3.22;3.03;;;0.40;99.90;;;;;;4989792;28;20743;-84
2021/04/07 00:57:52;;;;;;;4.35;2.70;;;0.40;99.90;;;;;;4975033;28;20677;-84
2021/04/07 01:00:18;;;;;;;4.00;2.97;;;0.30;99.90;;;;;;4992172;28;20223;-84
2021/04/07 01:02:45;;;;;;;5.78;2.55;;;0.40;99.90;;;;;;4986994;28;20597;-84
2021/04/07 01:05:11;;;;;;;3.03;2.78;;;0.30;99.90;;;;;;4993241;28;20197;-84
2021/04/07 01:07:37;;;;;;;3.85;2.88;;;0.30;99.90;;;;;;4960770;28;20312;-84
2021/04/07 01:10:10;;;;;;;4.13;2.77;;;0.30;99.90;;;;;;4955023;28;20196;-84
2021/04/07 01:12:37;;;;;;;2.85;2.50;;;0.30;99.90;;;;;;4971039;28;20438;-84
2021/04/07 01:15:05;;;;;;;3.55;2.97;;;0.40;99.90;;;;;;4973252;28;20188;-84
2021/04/07 01:17:30;;;;;;;2.70;2.50;;;0.40;99.90;;;;;;4992983;28;20250;-84
2021/04/07 01:19:56;;;;;;;2.60;2.27;;;0.40;99.90;;;;;;4990818;28;20188;-84
2021/04/07 01:22:24;;;;;;;3.33;2.80;;;0.30;99.90;;;;;;4992053;28;20447;-84
2021/04/07 01:24:50;;;;;;;2.80;2.60;;;0.30;99.90;;;;;;4975408;28;20480;-84
2021/04/07 01:27:16;;;;;;;2.57;2.37;;;0.30;99.90;;;;;;4981610;28;20224;-84
2021/04/07 01:29:43;;;;;;;3.53;2.15;;;0.30;99.90;;;;;;4991719;28;20460;-83
2021/04/07 01:32:09;;;;;;;3.05;2.50;;;0.40;99.90;;;;;;4976693;28;20238;-83
2021/04/07 01:34:42;;;;;;;2.30;2.10;;;0.40;99.90;;;;;;4989173;28;20816;-83
2021/04/07 01:37:09;;;;;;;3.03;2.30;;;0.50;99.90;;;;;;4975351;28;20459;-84
2021/04/07 01:39:35;;;;;;;3.83;2.85;;;0.40;99.90;;;;;;4983882;28;20279;-84
2021/04/07 01:42:02;;;;;;;2.30;2.10;;;0.50;99.90;;;;;;4992828;28;20209;-83
2021/04/07 01:44:28;;;;;;;2.55;2.20;;;0.50;99.90;;;;;;4991032;28;20197;-83
2021/04/07 01:46:55;;;;;;;2.53;2.33;;;0.50;99.90;;;;;;4977667;28;20217;-84
2021/04/07 01:49:22;;;;;;;4.30;2.25;;;0.50;99.90;;;;;;4974642;28;21599;-83
2021/04/07 01:51:48;;;;;;;4.72;2.50;;;0.40;99.90;;;;;;4993260;28;20588;-83
2021/04/07 01:54:14;;;;;;;2.60;2.40;;;0.40;99.90;;;;;;4979384;28;20194;-83
2021/04/07 01:56:50;;;;;;;4.53;2.70;;;0.40;99.90;;;;;;4992075;28;20362;-83
2021/04/07 01:59:34;;;;;;;5.50;2.80;;;0.40;99.90;;;;;;4978985;28;20247;-83
2021/04/07 02:02:00;;;;;;;4.47;2.55;;;0.40;99.90;;;;;;4978432;28;20290;-83
2021/04/07 02:04:27;;;;;;;3.00;2.70;;;0.30;99.90;;;;;;4998211;28;20898;-83
2021/04/07 02:06:53;;;;;;;3.08;2.78;;;0.30;99.90;;;;;;4973586;28;20567;-83
2021/04/07 02:09:19;;;;;;;2.40;2.00;;;0.40;99.90;;;;;;4989496;28;20186;-84
2021/04/07 02:11:47;;;;;;;3.10;2.90;;;0.40;99.90;;;;;;4971576;28;20205;-84
2021/04/07 02:14:15;;;;;;;4.20;2.63;;;0.40;99.90;;;;;;4969682;28;20529;-84
2021/04/07 02:16:40;;;;;;;4.00;2.45;;;0.40;99.90;;;;;;4996985;28;20739;-84
2021/04/07 02:19:08;;;;;;;4.13;2.53;;;0.40;99.90;;;;;;4978391;28;20185;-83
2021/04/07 02:21:33;;;;;;;3.97;2.53;;;0.40;99.90;;;;;;4976554;28;20247;-84
2021/04/07 02:23:59;;;;;;;2.27;2.00;;;0.30;99.90;;;;;;4997939;28;20671;-83
2021/04/07 02:26:26;;;;;;;2.63;2.37;;;0.30;99.90;;;;;;4991419;28;20555;-83
2021/04/07 02:28:51;;;;;;;3.00;2.80;;;0.30;99.90;;;;;;4979769;28;20490;-84
2021/04/07 02:31:17;;;;;;;4.73;2.10;;;0.30;99.90;;;;;;4989364;28;20196;-83
2021/04/07 02:33:43;;;;;;;2.67;2.47;;;0.40;99.90;;;;;;4985512;28;20212;-84
2021/04/07 02:36:08;;;;;;;3.37;3.07;;;0.30;99.90;;;;;;4995424;28;20189;-84
2021/04/07 02:38:34;;;;;;;2.93;2.73;;;0.30;99.90;;;;;;4992888;28;20201;-84
2021/04/07 02:41:00;;;;;;;3.40;3.10;;;0.40;99.90;;;;;;4978723;28;20196;-84
2021/04/07 02:43:26;;;;;;;4.90;2.47;;;0.30;99.90;;;;;;4992410;28;20186;-84
2021/04/07 02:45:51;;;;;;;3.77;3.13;;;0.30;99.90;;;;;;4989379;28;20384;-83
2021/04/07 02:48:17;;;;;;;3.80;3.40;;;0.30;99.90;;;;;;4978441;28;20200;-83
2021/04/07 02:50:43;;;;;;;5.30;4.13;;;0.30;99.90;;;;;;4976911;28;20678;-83
2021/04/07 02:53:08;;;;;;;2.70;2.50;;;0.30;99.90;;;;;;4995262;28;20181;-83
2021/04/07 02:55:34;;;;;;;5.67;2.87;;;0.30;99.90;;;;;;4979539;28;20188;-83
2021/04/07 02:57:59;;;;;;;3.23;2.90;;;0.30;99.90;;;;;;4994677;28;20193;-84
2021/04/07 03:00:25;;;;;;;3.13;2.83;;;0.20;99.90;;;;;;4994099;28;20254;-84
2021/04/07 03:02:51;;;;;;;4.53;3.30;;;0.30;99.90;;;;;;4992122;28;20693;-83
2021/04/07 03:05:16;;;;;;;3.23;2.63;;;0.20;99.90;;;;;;4995472;28;20192;-83
2021/04/07 03:07:43;;;;;;;2.77;2.57;;;0.20;99.90;;;;;;4992126;28;20910;-80
2021/04/07 03:10:10;;;;;;;4.20;3.20;;;0.30;99.90;;;;;;4974189;28;20182;-81
2021/04/07 03:12:37;;;;;;;4.00;2.85;;;0.20;99.90;;;;;;4988188;28;20189;-82
2021/04/07 03:15:04;;;;;;;3.33;3.03;;;0.10;99.90;;;;;;4966950;28;20664;-82
2021/04/07 03:17:30;;;;;;;3.00;2.80;;;0.20;99.90;;;;;;4990859;28;20182;-81
2021/04/07 03:19:55;;;;;;;6.93;3.73;;;0.10;99.90;;;;;;4977039;28;20205;-81
2021/04/07 03:22:21;;;;;;;4.47;3.37;;;0.00;99.90;;;;;;4969241;28;20185;-81
2021/04/07 03:24:47;;;;;;;4.10;3.33;;;0.10;99.90;;;;;;4980090;28;20624;-81
2021/04/07 03:27:12;;;;;;;3.70;3.30;;;0.10;99.90;;;;;;4980342;28;20252;-81
2021/04/07 03:29:38;;;;;;;5.37;3.43;;;0.10;99.90;;;;;;4977722;28;20581;-82
2021/04/07 03:32:04;;;;;;;4.47;3.33;;;0.10;99.90;;;;;;4991485;28;20211;-82
2021/04/07 03:34:30;;;;;;;5.60;3.58;;;0.10;99.90;;;;;;4993577;28;20442;-82
2021/04/07 03:36:55;;;;;;;4.27;3.87;;;0.10;99.90;;;;;;4975860;28;20195;-82
2021/04/07 03:39:21;;;;;;;4.00;2.80;;;0.20;99.90;;;;;;4978846;28;20223;-82
2021/04/07 03:41:47;;;;;;;4.73;3.27;;;0.20;99.90;;;;;;4991477;28;20655;-81
2021/04/07 03:44:12;;;;;;;4.37;3.43;;;0.20;99.90;;;;;;4993657;28;20704;-82
2021/04/07 03:46:38;;;;;;;4.50;3.43;;;0.20;99.90;;;;;;4990986;28;20224;-82
2021/04/07 03:49:03;;;;;;;4.40;3.77;;;0.20;99.90;;;;;;4991789;28;20199;-80
2021/04/07 03:51:29;;;;;;;2.90;2.70;;;0.30;99.90;;;;;;4978702;28;20203;-81
2021/04/07 03:53:55;;;;;;;3.93;3.07;;;0.20;99.90;;;;;;4976088;28;20224;-81
2021/04/07 03:56:20;;;;;;;3.67;3.10;;;0.30;99.90;;;;;;4990637;28;20604;-81
2021/04/07 03:58:46;;;;;;;3.60;2.57;;;0.30;99.90;;;;;;4977456;28;20564;-81
2021/04/07 04:01:12;;;;;;;3.70;2.93;;;0.30;99.90;;;;;;4973439;28;20200;-81
2021/04/07 04:03:37;;;;;;;5.40;3.43;;;0.30;99.90;;;;;;4993212;28;20195;-81
2021/04/07 04:06:04;;;;;;;3.47;3.17;;;0.40;99.90;;;;;;4975352;28;20192;-81
2021/04/07 04:08:30;;;;;;;7.60;2.78;;;0.40;99.90;;;;;;4973693;28;20204;-80
2021/04/07 04:10:56;;;;;;;6.10;3.57;;;0.30;99.90;;;;;;4988029;28;20177;-81
2021/04/07 04:13:22;;;;;;;3.30;2.80;;;0.30;99.90;;;;;;4992084;28;20197;-81
2021/04/07 04:15:48;;;;;;;3.40;2.60;;;0.30;99.90;;;;;;4992754;28;20195;-81
2021/04/07 04:18:14;;;;;;;4.97;3.53;;;0.30;99.90;;;;;;4992056;28;20188;-81
2021/04/07 04:20:40;;;;;;;4.23;2.90;;;0.30;99.90;;;;;;4968658;28;20536;-81
2021/04/07 04:23:05;;;;;;;3.30;3.00;;;0.30;99.90;;;;;;4994508;28;20288;-81
2021/04/07 04:25:32;;;;;;;4.13;3.73;;;0.30;99.90;;;;;;4981030;28;21549;-81
2021/04/07 04:27:57;;;;;;;6.82;3.35;;;0.30;99.90;;;;;;4976003;28;20209;-81
2021/04/07 04:30:25;;;;;;;4.63;3.00;;;0.30;99.90;;;;;;4988664;28;20196;-81
2021/04/07 04:32:50;;;;;;;3.72;2.72;;;0.30;99.90;;;;;;4992866;28;20479;-81
2021/04/07 04:35:16;;;;;;;4.83;2.83;;;0.30;99.90;;;;;;4987839;28;20181;-82
2021/04/07 04:37:42;;;;;;;4.20;3.80;;;0.30;99.90;;;;;;4976709;28;20582;-81
2021/04/07 04:40:13;;;;;;;3.97;3.13;;;0.30;99.90;;;;;;4990798;28;20181;-81
2021/04/07 04:42:39;;;;;;;5.22;2.83;;;0.30;99.90;;;;;;4990331;28;20478;-81
2021/04/07 04:45:06;;;;;;;4.00;2.57;;;0.30;99.90;;;;;;4974625;28;20615;-82
2021/04/07 04:47:33;;;;;;;2.85;2.55;;;0.40;99.90;;;;;;4976995;28;20219;-82
2021/04/07 04:49:58;;;;;;;2.95;2.17;;;0.40;99.90;;;;;;4990822;28;20186;-81
2021/04/07 04:52:24;;;;;;;2.60;2.40;;;0.40;99.90;;;;;;4989175;28;20184;-81
2021/04/07 04:54:50;;;;;;;3.13;2.80;;;0.40;99.90;;;;;;4957100;28;20202;-82
2021/04/07 04:57:18;;;;;;;2.00;1.80;;;0.40;99.90;;;;;;4980633;28;20540;-81
2021/04/07 04:59:44;;;;;;;2.90;2.70;;;0.40;99.90;;;;;;4989856;28;20544;-82
2021/04/07 05:02:10;;;;;;;3.80;2.77;;;0.40;99.90;;;;;;4991198;28;20216;-82
2021/04/07 05:04:36;;;;;;;2.60;2.40;;;0.30;99.90;;;;;;4978633;28;20954;-82
2021/04/07 05:07:01;;;;;;;3.30;2.20;;;0.30;99.90;;;;;;4990627;28;20530;-82
2021/04/07 05:09:27;;;;;;;2.23;2.03;;;0.40;99.90;;;;;;4993072;28;20969;-82
2021/04/07 05:11:53;;;;;;;4.37;2.30;;;0.30;99.90;;;;;;4979657;28;20185;-82
2021/04/07 05:14:19;;;;;;;3.67;2.50;;;0.40;99.90;;;;;;4981991;28;20200;-81
2021/04/07 05:16:44;;;;;;;2.70;1.98;;;0.40;99.90;;;;;;4996422;28;20181;-81
2021/04/07 05:19:10;;;;;;;2.70;2.00;;;0.40;99.90;;;;;;4994485;28;20201;-80
2021/04/07 05:21:36;;;;;;;3.20;2.60;;;0.40;99.90;;;;;;4999288;28;20188;-80
2021/04/07 05:24:02;;;;;;;3.07;2.07;;;0.40;99.90;;;;;;5001955;28;20185;-81
2021/04/07 05:26:28;;;;;;;2.30;2.10;;;0.40;99.90;;;;;;5001236;28;20201;-81
2021/04/07 05:28:53;;;;;;;2.87;2.40;;;0.50;99.90;;;;;;4998328;28;21000;-81
2021/04/07 05:31:19;;;;;;;2.77;2.53;;;0.50;99.90;;;;;;4997922;28;20705;-81
2021/04/07 05:33:46;;;;;;;2.83;2.20;;;0.60;99.90;;;;;;5000703;28;20209;-81
2021/04/07 05:36:14;;;;;;;7.95;2.03;;;0.50;99.90;;;;;;5014677;28;20208;-81
2021/04/07 05:38:41;;;;;;;6.40;2.22;;;0.50;99.90;;;;;;4983890;28;20252;-81
2021/04/07 05:41:07;;;;;;;4.55;2.25;;;0.60;99.90;;;;;;4966552;28;20181;-81
2021/04/07 05:43:35;;;;;;;5.72;2.20;;;0.60;99.90;;;;;;4976104;28;20201;-81
2021/04/07 05:46:04;;;;;;;4.60;2.25;;;0.60;99.90;;;;;;4978687;28;20189;-82
2021/04/07 05:48:30;;;;;;;5.95;2.70;;;0.60;99.90;;;;;;5001351;28;20224;-81
2021/04/07 05:51:00;;;;;;;4.55;2.28;;;0.70;99.90;;;;;;4983579;28;20606;-81
2021/04/07 05:53:25;;;;;;;3.95;2.38;;;0.70;99.90;;;;;;4981880;28;20271;-82
2021/04/07 05:55:54;;;;;;;4.47;2.90;;;0.70;99.90;;;;;;4997404;28;20742;-81
2021/04/07 05:58:20;;;;;;;2.65;2.00;;;0.70;99.90;;;;;;4977282;28;20224;-82
2021/04/07 06:00:47;;;;;;;2.15;1.83;;;0.80;99.90;;;;;;4984711;28;20193;-81
2021/04/07 06:03:13;;;;;;;3.63;2.13;;;0.80;99.90;;;;;;4997144;28;20265;-81
2021/04/07 06:05:40;;;;;;;3.28;2.30;;;0.80;99.90;;;;;;4985906;28;20239;-81
2021/04/07 06:08:07;;;;;;;1.50;1.30;;;0.80;99.90;;;;;;4989113;28;20251;-82
2021/04/07 06:10:37;;;;;;;4.35;2.50;;;0.80;99.90;;;;;;4999469;28;20188;-82
2021/04/07 06:13:02;;;;;;;4.55;2.55;;;0.90;99.90;;;;;;5000542;28;20544;-82
2021/04/07 06:15:29;;;;;;;2.23;1.97;;;0.90;99.90;;;;;;4999633;28;20243;-80
2021/04/07 06:18:04;;;;;;;3.30;2.33;;;0.90;99.90;;;;;;5001285;28;20196;-80
2021/04/07 06:20:37;;;;;;;4.40;3.08;;;0.90;99.90;;;;;;4983767;28;20185;-81
2021/04/07 06:23:05;;;;;;;6.72;2.58;;;0.90;99.90;;;;;;4998422;28;20272;-81
2021/04/07 06:25:32;;;;;;;3.88;2.40;;;0.90;99.90;;;;;;4982208;28;20193;-81
2021/04/07 06:28:00;;;;;;;3.95;1.83;;;0.90;99.90;;;;;;4975555;28;20564;-81
2021/04/07 06:30:45;;;;;;;3.70;2.45;;;0.90;99.90;;;;;;4999894;28;20181;-81
2021/04/07 06:33:23;;;;;;;1.40;1.30;;;0.90;99.90;;;;;;4975264;28;20355;-80
2021/04/07 06:35:51;;;;;;;2.92;2.13;;;1.00;99.90;;;;;;4974146;28;20232;-82
2021/04/07 06:38:18;;;;;;;5.05;1.70;;;0.80;99.90;;;;;;4996286;28;20184;-81
2021/04/07 06:40:45;;;;;;;2.83;2.63;;;0.80;99.90;;;;;;4995686;28;20192;-81
2021/04/07 06:43:11;;;;;;;1.58;1.48;;;0.80;99.90;;;;;;4998494;28;20204;-80
2021/04/07 06:45:39;;;;;;;2.35;1.67;;;0.70;99.90;;;;;;4997319;28;20181;-80
2021/04/07 06:48:08;;;;;;;3.13;2.58;;;0.70;99.90;;;;;;4978432;28;20260;-81
2021/04/07 06:50:36;;;;;;;4.38;2.38;;;0.80;99.90;;;;;;4998733;28;20595;-80
2021/04/07 06:53:08;;;;;;;2.50;2.30;;;0.90;99.90;;;;;;4983506;28;20190;-80
2021/04/07 06:55:35;;;;;;;3.00;2.50;;;1.10;99.90;;;;;;4999988;28;20204;-80
2021/04/07 06:58:06;;;;;;;4.13;1.50;;;1.30;99.90;;;;;;4999447;28;20251;-80
2021/04/07 07:00:33;;;;;;;3.20;1.95;;;1.30;99.90;;;;;;4997018;28;20201;-81
2021/04/07 07:03:16;;;;;;;1.60;1.45;;;1.30;99.90;;;;;;4979612;28;20236;-81
2021/04/07 07:05:48;;;;;;;2.80;1.40;;;1.20;99.90;;;;;;4985765;28;20220;-81
2021/04/07 07:08:15;;;;;;;3.42;2.13;;;1.30;99.90;;;;;;4997136;28;20642;-81
2021/04/07 07:10:49;;;;;;;2.83;1.55;;;1.30;99.90;;;;;;4994059;28;20189;-81
2021/04/07 07:13:23;;;;;;;3.08;2.03;;;1.50;99.90;;;;;;4984275;28;20548;-82
2021/04/07 07:15:50;;;;;;;4.55;2.25;;;1.60;99.90;;;;;;4997336;28;20185;-82
2021/04/07 07:18:26;;;;;;;1.65;1.50;;;1.90;99.50;;;;;;4970503;28;20224;-82
2021/04/07 07:20:53;;;;;;;5.17;2.13;;;2.40;98.70;;;;;;4975490;28;20189;-82
2021/04/07 07:23:31;;;;;;;2.83;2.40;;;2.10;98.30;;;;;;4981416;28;20497;-81
2021/04/07 07:26:06;;;;;;;2.47;1.80;;;2.10;98.70;;;;;;4995395;28;20774;-80
2021/04/07 07:28:41;;;;;;;4.73;1.73;;;2.20;98.30;;;;;;4992521;28;21776;-79
2021/04/07 07:31:22;;;;;;;6.78;1.42;;;2.10;97.40;;;;;;4979046;28;20536;-79
2021/04/07 07:33:48;;;;;;;1.70;1.60;;;1.90;97.40;;;;;;4989226;28;21374;-81
2021/04/07 07:36:14;;;;;;;3.95;2.90;;;1.80;97.50;;;;;;4989136;28;20490;-80
2021/04/07 07:38:51;;;;;;;4.03;1.52;;;1.90;97.60;;;;;;4994288;28;20597;-80
2021/04/07 07:41:24;;;;;;;2.07;1.27;;;1.90;97.60;;;;;;4994202;28;20636;-81
2021/04/07 07:43:51;;;;;;;2.63;1.60;;;1.90;97.40;;;;;;4977665;28;20462;-80
2021/04/07 07:46:20;;;;;;;3.40;1.43;;;1.90;97.40;;;;;;4997498;28;20193;-80
2021/04/07 07:48:47;;;;;;;3.23;1.63;;;2.10;97.20;;;;;;4995217;28;20961;-80
2021/04/07 07:51:18;;;;;;;2.60;1.43;;;2.30;97.20;;;;;;4981883;28;20470;-79
2021/04/07 07:53:45;;;;;;;2.03;1.30;;;2.20;96.30;;;;;;4993636;28;20849;-79
2021/04/07 07:56:13;;;;;;;2.70;2.10;;;2.30;96.40;;;;;;4999836;28;21250;-78
2021/04/07 07:58:46;;;;;;;2.00;1.83;;;2.20;96.30;;;;;;4980689;28;20486;-79
2021/04/07 08:01:15;;;;;;;1.93;1.53;;;2.30;96.60;;;;;;4996151;28;20495;-79
2021/04/07 08:03:42;;;;;;;4.90;2.05;;;2.10;95.70;;;;;;4995569;28;20513;-79
2021/04/07 08:06:09;;;;;;;4.97;2.10;;;2.00;96.20;;;;;;4980768;28;20196;-79
2021/04/07 08:08:34;;;;;;;4.43;1.63;;;2.10;96.00;;;;;;4980663;28;20579;-79
2021/04/07 08:11:03;;;;;;;1.97;1.63;;;2.20;95.90;;;;;;4997890;28;20443;-79
2021/04/07 08:13:46;;;;;;;1.50;0.97;;;2.30;95.60;;;;;;4994917;28;20185;-79
2021/04/07 08:16:17;;;;;;;2.80;1.70;;;2.30;95.60;;;;;;4980671;28;20440;-79
2021/04/07 08:18:47;;;;;;;3.70;2.47;;;2.20;95.60;;;;;;4993934;28;20539;-79
2021/04/07 08:21:23;;;;;;;3.23;1.50;;;2.20;95.70;;;;;;4994729;28;20452;-79
2021/04/07 08:24:01;;;;;;;3.57;1.47;;;2.10;95.70;;;;;;4996070;28;20949;-78
2021/04/07 08:26:30;;;;;;;1.97;1.27;;;2.10;96.20;;;;;;4979976;28;20493;-79
2021/04/07 08:28:56;;;;;;;1.73;1.60;;;1.90;96.40;;;;;;4968034;28;20505;-78
2021/04/07 08:31:24;;;;;;;1.40;1.30;;;1.80;96.40;;;;;;4976541;28;20531;-78
2021/04/07 08:33:52;;;;;;;2.30;1.20;;;2.00;97.40;;;;;;4991829;28;20202;-78
2021/04/07 08:36:20;;;;;;;3.22;2.35;;;2.20;96.20;;;;;;4999629;28;20443;-78
2021/04/07 08:38:46;;;;;;;2.03;1.50;;;2.30;96.90;;;;;;4997839;28;20193;-78
2021/04/07 08:41:13;;;;;;;2.53;1.53;;;2.50;95.90;;;;;;4981548;28;20776;-80
2021/04/07 08:43:40;;;;;;;2.20;1.50;;;2.70;96.30;;;;;;4980120;28;20536;-80
2021/04/07 08:46:17;;;;;;;3.53;1.77;;;2.50;96.20;;;;;;4995240;28;21550;-79
2021/04/07 08:48:43;;;;;;;1.90;1.50;;;2.70;95.80;;;;;;4982553;28;20448;-80
2021/04/07 08:51:11;;;;;;;1.30;0.93;;;2.60;95.20;;;;;;4991755;28;20456;-80
2021/04/07 08:53:47;;;;;;;1.60;1.50;;;2.80;95.50;;;;;;4994994;28;20459;-80
2021/04/07 08:56:35;;;;;;;3.03;1.47;;;2.80;95.60;;;;;;4994397;28;21295;-80
2021/04/07 08:59:03;;;;;;;3.07;1.60;;;3.00;95.80;;;;;;4977172;28;20829;-80
2021/04/07 09:01:35;;;;;;;1.43;1.33;;;2.80;95.80;;;;;;4978470;28;20798;-80
2021/04/07 09:04:13;;;;;;;1.63;1.40;;;2.50;96.90;;;;;;4989284;28;20535;-80
2021/04/07 09:06:57;;;;;;;1.30;1.20;;;2.30;99.30;;;;;;4993853;28;20479;-80
2021/04/07 09:09:23;;;;;;;3.57;1.93;;;2.40;99.40;;;;;;4997565;28;20469;-81
2021/04/07 09:11:50;;;;;;;3.30;2.30;;;2.80;99.10;;;;;;4974762;28;20436;-81
2021/04/07 09:14:16;;;;;;;2.10;1.30;;;3.20;98.40;;;;;;4990246;28;21900;-80
2021/04/07 09:16:42;;;;;;;1.20;1.10;;;3.20;97.90;;;;;;4991676;28;20440;-80
2021/04/07 09:19:15;;;;;;;3.83;2.00;;;3.30;97.00;;;;;;4992152;28;20441;-81
2021/04/07 09:21:52;;;;;;;1.23;1.13;;;4.00;96.20;;;;;;4994427;28;20186;-81
2021/04/07 09:24:19;;;;;;;2.57;1.87;;;3.60;95.90;;;;;;4979151;28;20969;-81
2021/04/07 09:26:47;;;;;;;2.00;1.30;;;3.80;96.20;;;;;;4993782;28;20815;-79
2021/04/07 09:29:14;;;;;;;2.70;1.40;;;3.00;97.30;;;;;;4990030;28;20803;-80
2021/04/07 09:31:40;;;;;;;3.57;1.77;;;2.50;99.90;;;;;;4964179;28;20449;-80
2021/04/07 09:34:06;;;;;;;3.60;1.83;;;2.50;99.90;;;;;;4986617;28;20454;-79
2021/04/07 09:36:33;;;;;;;2.60;2.00;;;2.40;99.90;;;;;;4994278;28;20972;-80
2021/04/07 09:39:02;;;;;;;2.03;1.70;;;2.30;99.90;;;;;;4996926;28;20806;-80
2021/04/07 09:41:30;;;;;;;1.40;1.30;;;2.00;99.90;;;;;;4996277;28;20441;-80
2021/04/07 09:43:56;;;;;;;2.47;1.60;;;1.90;99.90;;;;;;4974988;28;20186;-80
2021/04/07 09:46:23;;;;;;;3.20;1.70;;;2.20;99.90;;;;;;4991864;28;20357;-80
2021/04/07 09:49:00;;;;;;;3.93;1.23;;;2.60;99.90;;;;;;4993589;28;20440;-80
2021/04/07 09:51:36;;;;;;;2.23;2.03;;;2.60;99.90;;;;;;4981060;28;21027;-80
2021/04/07 09:54:08;;;;;;;4.10;1.30;;;2.80;99.90;;;;;;4975858;28;20436;-79
2021/04/07 09:56:54;;;;;;;2.50;1.97;;;2.80;99.90;;;;;;4997222;28;20433;-80
2021/04/07 09:59:42;;;;;;;3.60;1.87;;;2.70;99.50;;;;;;4982641;28;20444;-80
2021/04/07 10:02:29;;;;;;;4.33;2.50;;;3.00;99.30;;;;;;4991825;28;20490;-80
2021/04/07 10:04:56;;;;;;;2.80;2.00;;;3.40;98.80;;;;;;4979224;28;20528;-81
2021/04/07 10:07:24;;;;;;;3.60;2.50;;;3.40;98.00;;;;;;4982204;28;21003;-80
2021/04/07 10:09:54;;;;;;;2.00;1.50;;;3.90;97.30;;;;;;4987429;28;20444;-80
2021/04/07 10:12:22;;;;;;;4.10;2.07;;;3.90;96.00;;;;;;4977766;28;20534;-81
2021/04/07 10:14:56;;;;;;;5.57;1.97;;;3.90;95.00;;;;;;4992204;28;20522;-80
2021/04/07 10:17:32;;;;;;;4.20;2.37;;;4.70;94.20;;;;;;4994416;28;20452;-80
2021/04/07 10:20:15;;;;;;;1.60;1.50;;;5.10;92.90;;;;;;4993193;28;21039;-80
2021/04/07 10:22:42;;;;;;;2.90;1.90;;;4.90;91.60;;;;;;4972547;28;20482;-80
2021/04/07 10:25:15;;;;;;;1.37;1.27;;;4.40;92.20;;;;;;4992203;28;20965;-80
2021/04/07 10:27:42;;;;;;;2.63;2.10;;;4.30;93.10;;;;;;4991418;28;20490;-80
2021/04/07 10:30:11;;;;;;;4.70;2.60;;;4.00;93.90;;;;;;4988922;28;20436;-80
2021/04/07 10:32:45;;;;;;;2.93;1.63;;;4.10;94.40;;;;;;4989354;28;20859;-80
2021/04/07 10:35:23;;;;;;;1.90;1.80;;;4.00;94.00;;;;;;4990074;28;21327;-80
2021/04/07 10:37:59;;;;;;;4.83;1.90;;;3.70;93.30;;;;;;4992287;28;20461;-80
2021/04/07 10:40:31;;;;;;;5.03;2.60;;;3.50;94.40;;;;;;4971822;28;21021;-79
2021/04/07 10:42:58;;;;;;;2.23;1.60;;;3.20;97.20;;;;;;4993492;28;20814;-79
2021/04/07 10:45:27;;;;;;;4.80;2.20;;;3.00;99.90;;;;;;4990649;28;20574;-79
2021/04/07 10:48:03;;;;;;;6.03;2.03;;;2.70;99.90;;;;;;4993513;28;21877;-79
2021/04/07 10:50:34;;;;;;;1.90;1.80;;;2.60;99.50;;;;;;4991429;28;20818;-80
2021/04/07 10:53:00;;;;;;;2.27;1.93;;;2.70;99.60;;;;;;4991944;28;20448;-80
2021/04/07 10:55:28;;;;;;;2.50;1.80;;;2.70;99.70;;;;;;4978507;28;20533;-80
2021/04/07 10:57:58;;;;;;;2.10;1.87;;;2.60;99.90;;;;;;4986952;28;20456;-80
2021/04/07 11:00:33;;;;;;;2.93;2.03;;;2.90;99.90;;;;;;4985229;28;20448;-79
2021/04/07 11:02:59;;;;;;;2.20;1.70;;;2.90;99.90;;;;;;4993952;28;20760;-79
2021/04/07 11:05:48;;;;;;;3.50;1.67;;;3.10;99.20;;;;;;4965755;28;20440;-80
2021/04/07 11:08:15;;;;;;;2.37;1.60;;;3.20;97.10;;;;;;4984653;28;20989;-79
2021/04/07 11:10:43;;;;;;;3.30;1.63;;;3.60;96.60;;;;;;4974615;28;21554;-79
2021/04/07 11:13:10;;;;;;;1.83;1.50;;;3.80;93.70;;;;;;4972656;28;20535;-78
2021/04/07 11:15:36;;;;;;;2.87;1.43;;;3.70;92.70;;;;;;4973196;28;20450;-79
2021/04/07 11:18:02;;;;;;;2.80;1.60;;;4.10;92.30;;;;;;4989543;28;20440;-79
2021/04/07 11:20:28;;;;;;;1.47;1.30;;;4.20;91.70;;;;;;4989189;28;20248;-80
2021/04/07 11:22:54;;;;;;;1.30;1.10;;;4.40;90.60;;;;;;4992388;28;20651;-80
2021/04/07 11:25:21;;;;;;;3.73;1.57;;;4.70;90.00;;;;;;4988608;28;21162;-80
2021/04/07 11:27:51;;;;;;;4.43;2.20;;;4.50;87.90;;;;;;4991772;28;20468;-79
2021/04/07 11:30:18;;;;;;;5.33;2.23;;;4.50;89.30;;;;;;4986638;28;21081;-80
2021/04/07 11:32:55;;;;;;;2.53;1.87;;;4.70;89.00;;;;;;4987580;28;20444;-80
2021/04/07 11:37:56;;;;;;;5.67;1.60;;;4.50;86.10;;;;;;4991750;28;20449;-79
2021/04/07 11:45:43;;;;;;;2.40;1.67;;;4.80;86.80;;;;;;4985921;28;20586;-80
2021/04/07 11:48:09;;;;;;;2.30;0.90;;;4.90;87.50;;;;;;4971730;28;20494;-80
2021/04/07 11:50:35;;;;;;;4.17;1.53;;;4.60;86.50;;;;;;4987466;28;20787;-80
2021/04/07 11:53:01;;;;;;;1.90;1.13;;;4.60;86.50;;;;;;4985920;28;20196;-79
2021/04/07 11:55:26;;;;;;;1.77;1.50;;;5.00;85.20;;;;;;4990714;28;20587;-80
2021/04/07 11:57:52;;;;;;;4.53;2.17;;;4.80;77.50;;;;;;4991208;28;20189;-79
2021/04/07 12:00:19;;;;;;;4.30;2.33;;;4.90;77.50;;;;;;4991636;28;20350;-80
2021/04/07 12:02:46;;;;;;;3.03;1.70;;;4.90;79.80;;;;;;4972783;28;20439;-80
2021/04/07 12:05:15;;;;;;;2.00;1.50;;;5.30;77.00;;;;;;4988937;28;20914;-80
2021/04/07 12:07:41;;;;;;;3.10;1.23;;;5.10;73.20;;;;;;4985980;28;20575;-80
2021/04/07 12:10:08;;;;;;;2.93;1.70;;;4.80;74.90;;;;;;4988568;28;20468;-80
2021/04/07 12:12:33;;;;;;;3.50;1.40;;;4.50;76.20;;;;;;4994692;28;20700;-81
2021/04/07 12:14:59;;;;;;;1.40;1.30;;;4.50;78.20;;;;;;4980515;28;20450;-79
2021/04/07 12:17:25;;;;;;;2.57;1.43;;;4.70;80.40;;;;;;4988728;28;20215;-79
2021/04/07 12:19:50;;;;;;;2.53;1.50;;;4.30;78.20;;;;;;4970100;28;20283;-80
2021/04/07 12:22:17;;;;;;;2.20;1.70;;;4.20;78.90;;;;;;4989464;28;20623;-79
2021/04/07 12:24:43;;;;;;;6.27;2.57;;;4.20;81.30;;;;;;4989775;28;20555;-79
2021/04/07 12:27:09;;;;;;;1.00;0.90;;;4.10;82.00;;;;;;4989924;28;20483;-80
2021/04/07 12:29:35;;;;;;;4.03;1.73;;;3.90;79.80;;;;;;4973681;28;20428;-80
2021/04/07 12:32:00;;;;;;;4.00;1.40;;;4.10;79.90;;;;;;4973815;28;20486;-79
2021/04/07 12:34:27;;;;;;;1.80;1.30;;;4.20;79.80;;;;;;4991554;28;20439;-80
2021/04/07 12:36:53;;;;;;;3.80;1.27;;;4.10;80.40;;;;;;4989445;28;20435;-79
2021/04/07 12:39:20;;;;;;;2.40;1.60;;;4.00;81.60;;;;;;4978586;28;20492;-80
2021/04/07 12:41:51;;;;;;;3.90;1.20;;;4.20;82.00;;;;;;4986533;28;20437;-79
2021/04/07 12:44:16;;;;;;;3.70;1.00;;;4.30;81.30;;;;;;4986274;28;20447;-79
2021/04/07 12:46:42;;;;;;;1.97;0.97;;;4.30;82.80;;;;;;4983913;28;21035;-79
2021/04/07 12:49:08;;;;;;;1.20;1.20;;;4.40;84.80;;;;;;4984518;28;20338;-80
2021/04/07 12:51:34;;;;;;;4.57;1.37;;;4.10;86.30;;;;;;4971608;28;20491;-79
2021/04/07 12:53:59;;;;;;;1.80;1.07;;;4.00;88.40;;;;;;4983010;28;20192;-80
2021/04/07 12:56:31;;;;;;;4.60;1.70;;;4.10;90.40;;;;;;4987236;28;20196;-79
2021/04/07 12:58:57;;;;;;;4.53;1.97;;;4.30;90.70;;;;;;4986070;28;20217;-80
2021/04/07 13:01:23;;;;;;;2.13;1.10;;;4.70;90.70;;;;;;4987696;28;20464;-80
2021/04/07 13:03:48;;;;;;;5.60;1.80;;;4.30;87.60;;;;;;4971039;28;20456;-80
2021/04/07 13:06:14;;;;;;;2.97;1.53;;;4.30;87.50;;;;;;4978859;28;21289;-80
2021/04/07 13:08:40;;;;;;;3.90;2.03;;;4.30;87.70;;;;;;4963357;28;20777;-79
2021/04/07 13:11:06;;;;;;;3.03;1.90;;;4.40;89.20;;;;;;4982684;28;20452;-80